sensor_id;sensor_type;location;lat;lon;timestamp;P1;durP1;ratioP1;P2;durP2;ratioP2
74833;SDS011;63361;52.384;20.930;2024-01-30T00:02:22;42.80;;;15.67;;
74833;SDS011;63361;52.384;20.930;2024-01-30T00:04:47;42.33;;;17.90;;
74833;SDS011;63361;52.384;20.930;2024-01-30T00:07:13;39.33;;;15.23;;
74833;SDS011;63361;52.384;20.930;2024-01-30T00:09:38;41.97;;;18.93;;
74833;SDS011;63361;52.384;20.930;2024-01-30T00:12:04;45.45;;;18.77;;
74833;SDS011;63361;52.384;20.930;2024-01-30T00:14:30;37.00;;;16.30;;
74833;SDS011;63361;52.384;20.930;2024-01-30T00:16:55;40.27;;;18.63;;
74833;SDS011;63361;52.384;20.930;2024-01-30T00:19:20;40.80;;;16.43;;
74833;SDS011;63361;52.384;20.930;2024-01-30T00:21:45;38.60;;;18.43;;
74833;SDS011;63361;52.384;20.930;2024-01-30T00:24:10;33.50;;;15.00;;
74833;SDS011;63361;52.384;20.930;2024-01-30T00:26:35;37.80;;;15.10;;
74833;SDS011;63361;52.384;20.930;2024-01-30T00:29:01;34.20;;;16.23;;
74833;SDS011;63361;52.384;20.930;2024-01-30T00:31:26;38.60;;;18.83;;
74833;SDS011;63361;52.384;20.930;2024-01-30T00:33:51;37.53;;;15.73;;
74833;SDS011;63361;52.384;20.930;2024-01-30T00:36:16;37.07;;;16.77;;
74833;SDS011;63361;52.384;20.930;2024-01-30T00:38:42;35.80;;;14.60;;
74833;SDS011;63361;52.384;20.930;2024-01-30T00:41:10;36.07;;;16.07;;
74833;SDS011;63361;52.384;20.930;2024-01-30T00:43:35;36.83;;;16.92;;
74833;SDS011;63361;52.384;20.930;2024-01-30T00:46:01;37.83;;;17.53;;
74833;SDS011;63361;52.384;20.930;2024-01-30T00:48:26;35.97;;;17.57;;
74833;SDS011;63361;52.384;20.930;2024-01-30T00:50:51;34.13;;;17.00;;
74833;SDS011;63361;52.384;20.930;2024-01-30T00:53:16;32.65;;;16.25;;
74833;SDS011;63361;52.384;20.930;2024-01-30T00:55:41;37.20;;;16.47;;
74833;SDS011;63361;52.384;20.930;2024-01-30T00:58:07;33.20;;;14.60;;
74833;SDS011;63361;52.384;20.930;2024-01-30T01:00:32;28.33;;;13.33;;
74833;SDS011;63361;52.384;20.930;2024-01-30T01:02:58;31.57;;;13.13;;
74833;SDS011;63361;52.384;20.930;2024-01-30T01:05:23;29.00;;;14.10;;
74833;SDS011;63361;52.384;20.930;2024-01-30T01:07:48;38.93;;;18.77;;
74833;SDS011;63361;52.384;20.930;2024-01-30T01:10:14;36.93;;;17.90;;
74833;SDS011;63361;52.384;20.930;2024-01-30T01:12:39;33.53;;;14.37;;
74833;SDS011;63361;52.384;20.930;2024-01-30T01:15:04;32.47;;;14.80;;
74833;SDS011;63361;52.384;20.930;2024-01-30T01:17:30;33.47;;;14.13;;
74833;SDS011;63361;52.384;20.930;2024-01-30T01:19:55;41.43;;;17.07;;
74833;SDS011;63361;52.384;20.930;2024-01-30T01:22:20;32.77;;;14.97;;
74833;SDS011;63361;52.384;20.930;2024-01-30T01:24:45;30.67;;;15.47;;
74833;SDS011;63361;52.384;20.930;2024-01-30T01:27:11;33.03;;;14.40;;
74833;SDS011;63361;52.384;20.930;2024-01-30T01:29:36;36.13;;;15.93;;
74833;SDS011;63361;52.384;20.930;2024-01-30T01:32:01;33.43;;;16.33;;
74833;SDS011;63361;52.384;20.930;2024-01-30T01:34:26;33.57;;;15.97;;
74833;SDS011;63361;52.384;20.930;2024-01-30T01:36:52;33.97;;;16.33;;
74833;SDS011;63361;52.384;20.930;2024-01-30T01:39:20;35.67;;;17.23;;
74833;SDS011;63361;52.384;20.930;2024-01-30T01:41:45;39.07;;;17.13;;
74833;SDS011;63361;52.384;20.930;2024-01-30T01:44:10;35.07;;;16.60;;
74833;SDS011;63361;52.384;20.930;2024-01-30T01:46:35;38.53;;;15.87;;
74833;SDS011;63361;52.384;20.930;2024-01-30T01:49:02;35.90;;;14.90;;
74833;SDS011;63361;52.384;20.930;2024-01-30T01:51:27;32.33;;;14.13;;
74833;SDS011;63361;52.384;20.930;2024-01-30T01:53:54;31.87;;;14.93;;
74833;SDS011;63361;52.384;20.930;2024-01-30T01:56:21;36.85;;;17.63;;
74833;SDS011;63361;52.384;20.930;2024-01-30T01:58:47;41.15;;;17.52;;
74833;SDS011;63361;52.384;20.930;2024-01-30T02:01:13;36.72;;;16.23;;
74833;SDS011;63361;52.384;20.930;2024-01-30T02:03:38;29.87;;;15.70;;
74833;SDS011;63361;52.384;20.930;2024-01-30T02:06:04;30.23;;;14.13;;
74833;SDS011;63361;52.384;20.930;2024-01-30T02:08:29;36.15;;;14.38;;
74833;SDS011;63361;52.384;20.930;2024-01-30T02:10:54;49.97;;;15.80;;
74833;SDS011;63361;52.384;20.930;2024-01-30T02:13:20;37.57;;;15.87;;
74833;SDS011;63361;52.384;20.930;2024-01-30T02:15:48;39.47;;;17.03;;
74833;SDS011;63361;52.384;20.930;2024-01-30T02:18:14;33.70;;;16.60;;
74833;SDS011;63361;52.384;20.930;2024-01-30T02:20:39;44.07;;;17.90;;
74833;SDS011;63361;52.384;20.930;2024-01-30T02:23:04;36.53;;;15.50;;
74833;SDS011;63361;52.384;20.930;2024-01-30T02:25:33;35.07;;;15.27;;
74833;SDS011;63361;52.384;20.930;2024-01-30T02:27:58;35.38;;;14.73;;
74833;SDS011;63361;52.384;20.930;2024-01-30T02:30:23;32.20;;;14.40;;
74833;SDS011;63361;52.384;20.930;2024-01-30T02:32:49;31.70;;;14.10;;
74833;SDS011;63361;52.384;20.930;2024-01-30T02:35:14;29.90;;;13.30;;
74833;SDS011;63361;52.384;20.930;2024-01-30T02:37:39;33.57;;;14.33;;
74833;SDS011;63361;52.384;20.930;2024-01-30T02:40:04;31.33;;;14.20;;
74833;SDS011;63361;52.384;20.930;2024-01-30T02:42:30;32.17;;;13.32;;
74833;SDS011;63361;52.384;20.930;2024-01-30T02:44:55;34.87;;;14.57;;
74833;SDS011;63361;52.384;20.930;2024-01-30T02:47:20;58.60;;;20.43;;
74833;SDS011;63361;52.384;20.930;2024-01-30T02:49:45;44.60;;;17.67;;
74833;SDS011;63361;52.384;20.930;2024-01-30T02:52:10;35.80;;;16.37;;
74833;SDS011;63361;52.384;20.930;2024-01-30T02:54:36;40.97;;;16.93;;
74833;SDS011;63361;52.384;20.930;2024-01-30T02:57:02;40.70;;;17.83;;
74833;SDS011;63361;52.384;20.930;2024-01-30T02:59:27;45.97;;;18.83;;
74833;SDS011;63361;52.384;20.930;2024-01-30T03:01:52;42.50;;;18.37;;
74833;SDS011;63361;52.384;20.930;2024-01-30T03:04:17;44.05;;;19.15;;
74833;SDS011;63361;52.384;20.930;2024-01-30T03:06:46;44.63;;;17.87;;
74833;SDS011;63361;52.384;20.930;2024-01-30T03:09:15;40.10;;;18.13;;
74833;SDS011;63361;52.384;20.930;2024-01-30T03:11:41;40.33;;;17.40;;
74833;SDS011;63361;52.384;20.930;2024-01-30T03:14:06;40.10;;;17.23;;
74833;SDS011;63361;52.384;20.930;2024-01-30T03:16:31;30.30;;;13.97;;
74833;SDS011;63361;52.384;20.930;2024-01-30T03:18:57;38.70;;;16.47;;
74833;SDS011;63361;52.384;20.930;2024-01-30T03:21:22;45.55;;;16.85;;
74833;SDS011;63361;52.384;20.930;2024-01-30T03:23:47;39.10;;;16.20;;
74833;SDS011;63361;52.384;20.930;2024-01-30T03:26:12;39.95;;;17.80;;
74833;SDS011;63361;52.384;20.930;2024-01-30T03:28:38;37.93;;;16.87;;
74833;SDS011;63361;52.384;20.930;2024-01-30T03:31:03;48.63;;;19.33;;
74833;SDS011;63361;52.384;20.930;2024-01-30T03:33:28;55.70;;;20.40;;
74833;SDS011;63361;52.384;20.930;2024-01-30T03:35:53;58.10;;;23.63;;
74833;SDS011;63361;52.384;20.930;2024-01-30T03:38:18;65.10;;;27.50;;
74833;SDS011;63361;52.384;20.930;2024-01-30T03:40:44;120.90;;;39.87;;
74833;SDS011;63361;52.384;20.930;2024-01-30T03:43:09;44.00;;;17.37;;
74833;SDS011;63361;52.384;20.930;2024-01-30T03:45:34;119.93;;;41.13;;
74833;SDS011;63361;52.384;20.930;2024-01-30T03:47:59;101.70;;;32.07;;
74833;SDS011;63361;52.384;20.930;2024-01-30T03:50:24;122.47;;;37.43;;
74833;SDS011;63361;52.384;20.930;2024-01-30T03:52:50;203.97;;;56.87;;
74833;SDS011;63361;52.384;20.930;2024-01-30T03:55:15;78.17;;;27.70;;
74833;SDS011;63361;52.384;20.930;2024-01-30T03:57:40;42.00;;;16.77;;
74833;SDS011;63361;52.384;20.930;2024-01-30T04:00:05;44.70;;;18.10;;
74833;SDS011;63361;52.384;20.930;2024-01-30T04:02:31;98.33;;;30.53;;
74833;SDS011;63361;52.384;20.930;2024-01-30T04:04:56;90.80;;;29.73;;
74833;SDS011;63361;52.384;20.930;2024-01-30T04:07:21;147.67;;;42.83;;
74833;SDS011;63361;52.384;20.930;2024-01-30T04:09:46;90.90;;;30.47;;
74833;SDS011;63361;52.384;20.930;2024-01-30T04:12:11;45.43;;;19.27;;
74833;SDS011;63361;52.384;20.930;2024-01-30T04:14:38;38.13;;;15.10;;
74833;SDS011;63361;52.384;20.930;2024-01-30T04:17:03;34.58;;;14.68;;
74833;SDS011;63361;52.384;20.930;2024-01-30T04:19:28;37.83;;;13.77;;
74833;SDS011;63361;52.384;20.930;2024-01-30T04:21:53;36.03;;;14.53;;
74833;SDS011;63361;52.384;20.930;2024-01-30T04:24:18;31.60;;;14.27;;
74833;SDS011;63361;52.384;20.930;2024-01-30T04:26:43;34.00;;;13.83;;
74833;SDS011;63361;52.384;20.930;2024-01-30T04:29:09;32.27;;;13.50;;
74833;SDS011;63361;52.384;20.930;2024-01-30T04:31:35;30.00;;;12.77;;
74833;SDS011;63361;52.384;20.930;2024-01-30T04:34:01;29.30;;;13.00;;
74833;SDS011;63361;52.384;20.930;2024-01-30T04:36:26;32.33;;;13.50;;
74833;SDS011;63361;52.384;20.930;2024-01-30T04:38:51;72.20;;;25.57;;
74833;SDS011;63361;52.384;20.930;2024-01-30T04:41:16;60.73;;;20.27;;
74833;SDS011;63361;52.384;20.930;2024-01-30T04:43:42;32.17;;;14.53;;
74833;SDS011;63361;52.384;20.930;2024-01-30T04:46:07;30.90;;;14.47;;
74833;SDS011;63361;52.384;20.930;2024-01-30T04:48:32;35.33;;;14.83;;
74833;SDS011;63361;52.384;20.930;2024-01-30T04:50:58;32.87;;;14.00;;
74833;SDS011;63361;52.384;20.930;2024-01-30T04:53:23;36.83;;;14.13;;
74833;SDS011;63361;52.384;20.930;2024-01-30T04:55:48;35.08;;;15.05;;
74833;SDS011;63361;52.384;20.930;2024-01-30T04:58:13;39.45;;;17.13;;
74833;SDS011;63361;52.384;20.930;2024-01-30T05:00:38;35.83;;;13.97;;
74833;SDS011;63361;52.384;20.930;2024-01-30T05:03:04;52.73;;;18.13;;
74833;SDS011;63361;52.384;20.930;2024-01-30T05:05:29;54.17;;;20.63;;
74833;SDS011;63361;52.384;20.930;2024-01-30T05:07:54;46.33;;;18.10;;
74833;SDS011;63361;52.384;20.930;2024-01-30T05:10:19;38.90;;;14.77;;
74833;SDS011;63361;52.384;20.930;2024-01-30T05:12:45;37.03;;;14.63;;
74833;SDS011;63361;52.384;20.930;2024-01-30T05:15:10;30.47;;;12.93;;
74833;SDS011;63361;52.384;20.930;2024-01-30T05:17:35;34.03;;;14.03;;
74833;SDS011;63361;52.384;20.930;2024-01-30T05:20:00;33.20;;;12.63;;
74833;SDS011;63361;52.384;20.930;2024-01-30T05:22:25;30.50;;;13.67;;
74833;SDS011;63361;52.384;20.930;2024-01-30T05:24:50;30.73;;;13.37;;
74833;SDS011;63361;52.384;20.930;2024-01-30T05:27:16;35.40;;;12.77;;
74833;SDS011;63361;52.384;20.930;2024-01-30T05:29:41;31.10;;;14.10;;
74833;SDS011;63361;52.384;20.930;2024-01-30T05:32:06;33.43;;;13.53;;
74833;SDS011;63361;52.384;20.930;2024-01-30T05:34:31;29.47;;;13.23;;
74833;SDS011;63361;52.384;20.930;2024-01-30T05:36:57;25.33;;;13.10;;
74833;SDS011;63361;52.384;20.930;2024-01-30T05:39:22;32.20;;;13.30;;
74833;SDS011;63361;52.384;20.930;2024-01-30T05:41:47;32.47;;;14.10;;
74833;SDS011;63361;52.384;20.930;2024-01-30T05:44:12;43.63;;;15.03;;
74833;SDS011;63361;52.384;20.930;2024-01-30T05:46:37;33.90;;;13.43;;
74833;SDS011;63361;52.384;20.930;2024-01-30T05:49:03;32.70;;;13.97;;
74833;SDS011;63361;52.384;20.930;2024-01-30T05:51:28;27.63;;;12.80;;
74833;SDS011;63361;52.384;20.930;2024-01-30T05:53:53;34.50;;;13.87;;
74833;SDS011;63361;52.384;20.930;2024-01-30T05:56:18;33.50;;;13.83;;
74833;SDS011;63361;52.384;20.930;2024-01-30T05:58:43;33.40;;;13.67;;
74833;SDS011;63361;52.384;20.930;2024-01-30T06:01:09;37.93;;;15.47;;
74833;SDS011;63361;52.384;20.930;2024-01-30T06:03:34;43.07;;;17.27;;
74833;SDS011;63361;52.384;20.930;2024-01-30T06:05:59;34.73;;;15.17;;
74833;SDS011;63361;52.384;20.930;2024-01-30T06:08:25;33.77;;;14.83;;
74833;SDS011;63361;52.384;20.930;2024-01-30T06:10:50;34.27;;;15.57;;
74833;SDS011;63361;52.384;20.930;2024-01-30T06:13:15;38.37;;;16.67;;
74833;SDS011;63361;52.384;20.930;2024-01-30T06:15:40;47.63;;;22.03;;
74833;SDS011;63361;52.384;20.930;2024-01-30T06:18:05;44.40;;;17.97;;
74833;SDS011;63361;52.384;20.930;2024-01-30T06:20:31;41.93;;;16.27;;
74833;SDS011;63361;52.384;20.930;2024-01-30T06:22:56;36.10;;;15.40;;
74833;SDS011;63361;52.384;20.930;2024-01-30T06:25:21;48.83;;;15.90;;
74833;SDS011;63361;52.384;20.930;2024-01-30T06:27:46;39.33;;;16.53;;
74833;SDS011;63361;52.384;20.930;2024-01-30T06:30:11;40.73;;;15.33;;
74833;SDS011;63361;52.384;20.930;2024-01-30T06:32:37;40.70;;;16.47;;
74833;SDS011;63361;52.384;20.930;2024-01-30T06:35:02;34.63;;;15.80;;
74833;SDS011;63361;52.384;20.930;2024-01-30T06:37:28;40.70;;;17.52;;
74833;SDS011;63361;52.384;20.930;2024-01-30T06:39:53;45.77;;;18.77;;
74833;SDS011;63361;52.384;20.930;2024-01-30T06:42:18;38.73;;;15.03;;
74833;SDS011;63361;52.384;20.930;2024-01-30T06:44:44;74.73;;;22.27;;
74833;SDS011;63361;52.384;20.930;2024-01-30T06:47:10;82.33;;;25.63;;
74833;SDS011;63361;52.384;20.930;2024-01-30T06:49:35;93.22;;;30.25;;
74833;SDS011;63361;52.384;20.930;2024-01-30T06:52:03;72.50;;;27.85;;
74833;SDS011;63361;52.384;20.930;2024-01-30T06:54:29;103.20;;;33.00;;
74833;SDS011;63361;52.384;20.930;2024-01-30T06:56:55;114.85;;;36.33;;
74833;SDS011;63361;52.384;20.930;2024-01-30T06:59:20;120.95;;;37.63;;
74833;SDS011;63361;52.384;20.930;2024-01-30T07:01:45;100.85;;;30.85;;
74833;SDS011;63361;52.384;20.930;2024-01-30T07:04:10;65.55;;;25.13;;
74833;SDS011;63361;52.384;20.930;2024-01-30T07:06:35;59.05;;;23.25;;
74833;SDS011;63361;52.384;20.930;2024-01-30T07:09:01;65.30;;;24.90;;
74833;SDS011;63361;52.384;20.930;2024-01-30T07:11:26;70.17;;;27.10;;
74833;SDS011;63361;52.384;20.930;2024-01-30T07:13:52;111.50;;;45.93;;
74833;SDS011;63361;52.384;20.930;2024-01-30T07:16:17;78.00;;;33.90;;
74833;SDS011;63361;52.384;20.930;2024-01-30T07:18:43;50.20;;;22.50;;
74833;SDS011;63361;52.384;20.930;2024-01-30T07:21:08;40.95;;;18.80;;
74833;SDS011;63361;52.384;20.930;2024-01-30T07:23:34;35.33;;;15.23;;
74833;SDS011;63361;52.384;20.930;2024-01-30T07:26:00;28.27;;;12.77;;
74833;SDS011;63361;52.384;20.930;2024-01-30T07:28:25;29.10;;;11.90;;
74833;SDS011;63361;52.384;20.930;2024-01-30T07:30:50;25.97;;;11.10;;
74833;SDS011;63361;52.384;20.930;2024-01-30T07:33:15;29.20;;;10.63;;
74833;SDS011;63361;52.384;20.930;2024-01-30T07:35:40;24.23;;;11.03;;
74833;SDS011;63361;52.384;20.930;2024-01-30T07:38:06;27.20;;;11.10;;
74833;SDS011;63361;52.384;20.930;2024-01-30T07:40:31;27.10;;;11.37;;
74833;SDS011;63361;52.384;20.930;2024-01-30T07:42:58;25.08;;;11.15;;
74833;SDS011;63361;52.384;20.930;2024-01-30T07:45:23;21.43;;;10.43;;
74833;SDS011;63361;52.384;20.930;2024-01-30T07:47:49;25.15;;;10.70;;
74833;SDS011;63361;52.384;20.930;2024-01-30T07:50:14;26.37;;;10.53;;
74833;SDS011;63361;52.384;20.930;2024-01-30T07:52:40;23.53;;;9.97;;
74833;SDS011;63361;52.384;20.930;2024-01-30T07:55:05;25.43;;;10.10;;
74833;SDS011;63361;52.384;20.930;2024-01-30T07:57:32;25.98;;;10.75;;
74833;SDS011;63361;52.384;20.930;2024-01-30T07:59:59;25.75;;;11.48;;
74833;SDS011;63361;52.384;20.930;2024-01-30T08:02:24;24.53;;;9.90;;
74833;SDS011;63361;52.384;20.930;2024-01-30T08:04:49;22.15;;;9.55;;
74833;SDS011;63361;52.384;20.930;2024-01-30T08:07:14;24.70;;;11.10;;
74833;SDS011;63361;52.384;20.930;2024-01-30T08:09:39;23.60;;;9.63;;
74833;SDS011;63361;52.384;20.930;2024-01-30T08:12:05;25.17;;;10.93;;
74833;SDS011;63361;52.384;20.930;2024-01-30T08:14:30;23.63;;;8.90;;
74833;SDS011;63361;52.384;20.930;2024-01-30T08:16:55;25.73;;;10.37;;
74833;SDS011;63361;52.384;20.930;2024-01-30T08:19:20;23.53;;;10.53;;
74833;SDS011;63361;52.384;20.930;2024-01-30T08:21:45;21.70;;;9.87;;
74833;SDS011;63361;52.384;20.930;2024-01-30T08:24:11;22.23;;;9.67;;
74833;SDS011;63361;52.384;20.930;2024-01-30T08:26:36;23.13;;;9.87;;
74833;SDS011;63361;52.384;20.930;2024-01-30T08:29:02;25.63;;;11.10;;
74833;SDS011;63361;52.384;20.930;2024-01-30T08:31:27;29.10;;;12.37;;
74833;SDS011;63361;52.384;20.930;2024-01-30T08:33:52;33.97;;;14.67;;
74833;SDS011;63361;52.384;20.930;2024-01-30T08:36:17;22.23;;;9.77;;
74833;SDS011;63361;52.384;20.930;2024-01-30T08:38:43;18.98;;;9.70;;
74833;SDS011;63361;52.384;20.930;2024-01-30T08:41:08;20.93;;;10.07;;
74833;SDS011;63361;52.384;20.930;2024-01-30T08:43:33;25.00;;;9.60;;
74833;SDS011;63361;52.384;20.930;2024-01-30T08:45:59;23.63;;;8.93;;
74833;SDS011;63361;52.384;20.930;2024-01-30T08:48:24;17.63;;;9.27;;
74833;SDS011;63361;52.384;20.930;2024-01-30T08:50:50;22.27;;;9.40;;
74833;SDS011;63361;52.384;20.930;2024-01-30T08:53:15;18.67;;;9.77;;
74833;SDS011;63361;52.384;20.930;2024-01-30T08:55:40;21.83;;;10.93;;
74833;SDS011;63361;52.384;20.930;2024-01-30T08:58:06;26.63;;;10.23;;
74833;SDS011;63361;52.384;20.930;2024-01-30T09:00:31;19.97;;;9.13;;
74833;SDS011;63361;52.384;20.930;2024-01-30T09:02:56;21.07;;;9.63;;
74833;SDS011;63361;52.384;20.930;2024-01-30T09:05:21;19.80;;;8.57;;
74833;SDS011;63361;52.384;20.930;2024-01-30T09:07:46;20.13;;;8.83;;
74833;SDS011;63361;52.384;20.930;2024-01-30T09:10:11;19.70;;;9.00;;
74833;SDS011;63361;52.384;20.930;2024-01-30T09:12:37;21.23;;;9.10;;
74833;SDS011;63361;52.384;20.930;2024-01-30T09:15:03;17.67;;;9.32;;
74833;SDS011;63361;52.384;20.930;2024-01-30T09:17:28;19.47;;;8.27;;
74833;SDS011;63361;52.384;20.930;2024-01-30T09:19:53;17.50;;;8.13;;
74833;SDS011;63361;52.384;20.930;2024-01-30T09:22:18;17.97;;;8.33;;
74833;SDS011;63361;52.384;20.930;2024-01-30T09:24:44;16.80;;;8.80;;
74833;SDS011;63361;52.384;20.930;2024-01-30T09:27:09;16.43;;;7.90;;
74833;SDS011;63361;52.384;20.930;2024-01-30T09:29:34;18.13;;;8.07;;
74833;SDS011;63361;52.384;20.930;2024-01-30T09:32:01;18.63;;;8.07;;
74833;SDS011;63361;52.384;20.930;2024-01-30T09:34:26;17.87;;;8.10;;
74833;SDS011;63361;52.384;20.930;2024-01-30T09:36:51;19.70;;;9.43;;
74833;SDS011;63361;52.384;20.930;2024-01-30T09:39:17;26.50;;;12.60;;
74833;SDS011;63361;52.384;20.930;2024-01-30T09:41:45;20.65;;;8.70;;
74833;SDS011;63361;52.384;20.930;2024-01-30T09:44:13;19.30;;;8.93;;
74833;SDS011;63361;52.384;20.930;2024-01-30T09:46:39;17.70;;;7.97;;
74833;SDS011;63361;52.384;20.930;2024-01-30T09:49:05;17.40;;;6.83;;
74833;SDS011;63361;52.384;20.930;2024-01-30T09:51:31;17.55;;;7.90;;
74833;SDS011;63361;52.384;20.930;2024-01-30T09:53:56;20.60;;;7.77;;
74833;SDS011;63361;52.384;20.930;2024-01-30T09:56:22;18.97;;;8.53;;
74833;SDS011;63361;52.384;20.930;2024-01-30T09:58:47;14.20;;;7.47;;
74833;SDS011;63361;52.384;20.930;2024-01-30T10:01:13;13.55;;;6.65;;
74833;SDS011;63361;52.384;20.930;2024-01-30T10:03:43;17.90;;;7.57;;
74833;SDS011;63361;52.384;20.930;2024-01-30T10:06:08;22.07;;;9.33;;
74833;SDS011;63361;52.384;20.930;2024-01-30T10:08:34;19.47;;;10.30;;
74833;SDS011;63361;52.384;20.930;2024-01-30T10:10:59;16.73;;;7.50;;
74833;SDS011;63361;52.384;20.930;2024-01-30T10:13:25;15.40;;;8.33;;
74833;SDS011;63361;52.384;20.930;2024-01-30T10:15:50;15.50;;;7.20;;
74833;SDS011;63361;52.384;20.930;2024-01-30T10:18:16;18.48;;;6.88;;
74833;SDS011;63361;52.384;20.930;2024-01-30T10:20:41;15.60;;;7.03;;
74833;SDS011;63361;52.384;20.930;2024-01-30T10:23:07;17.80;;;6.20;;
74833;SDS011;63361;52.384;20.930;2024-01-30T10:25:33;14.60;;;6.53;;
74833;SDS011;63361;52.384;20.930;2024-01-30T10:27:58;14.87;;;6.40;;
74833;SDS011;63361;52.384;20.930;2024-01-30T10:30:24;15.90;;;6.50;;
74833;SDS011;63361;52.384;20.930;2024-01-30T10:32:49;16.88;;;6.72;;
74833;SDS011;63361;52.384;20.930;2024-01-30T10:35:15;16.57;;;9.43;;
74833;SDS011;63361;52.384;20.930;2024-01-30T10:37:41;13.30;;;6.80;;
74833;SDS011;63361;52.384;20.930;2024-01-30T10:40:08;12.65;;;6.32;;
74833;SDS011;63361;52.384;20.930;2024-01-30T10:42:34;13.20;;;5.57;;
74833;SDS011;63361;52.384;20.930;2024-01-30T10:45:07;12.48;;;6.40;;
74833;SDS011;63361;52.384;20.930;2024-01-30T10:47:34;11.30;;;6.30;;
74833;SDS011;63361;52.384;20.930;2024-01-30T10:49:59;19.17;;;6.55;;
74833;SDS011;63361;52.384;20.930;2024-01-30T10:52:25;13.77;;;6.28;;
74833;SDS011;63361;52.384;20.930;2024-01-30T10:54:51;14.70;;;6.27;;
74833;SDS011;63361;52.384;20.930;2024-01-30T10:57:17;14.07;;;6.15;;
74833;SDS011;63361;52.384;20.930;2024-01-30T10:59:42;12.63;;;5.60;;
74833;SDS011;63361;52.384;20.930;2024-01-30T11:02:08;12.07;;;6.13;;
74833;SDS011;63361;52.384;20.930;2024-01-30T11:04:38;15.43;;;6.32;;
74833;SDS011;63361;52.384;20.930;2024-01-30T11:07:25;15.83;;;6.70;;
74833;SDS011;63361;52.384;20.930;2024-01-30T11:09:52;14.60;;;6.30;;
74833;SDS011;63361;52.384;20.930;2024-01-30T11:12:24;13.15;;;5.68;;
74833;SDS011;63361;52.384;20.930;2024-01-30T11:15:06;13.50;;;5.68;;
74833;SDS011;63361;52.384;20.930;2024-01-30T11:20:10;15.67;;;6.77;;
74833;SDS011;63361;52.384;20.930;2024-01-30T11:22:35;15.80;;;5.85;;
74833;SDS011;63361;52.384;20.930;2024-01-30T11:25:01;11.50;;;5.50;;
74833;SDS011;63361;52.384;20.930;2024-01-30T11:27:28;16.60;;;6.18;;
74833;SDS011;63361;52.384;20.930;2024-01-30T11:29:53;16.03;;;6.03;;
74833;SDS011;63361;52.384;20.930;2024-01-30T11:32:22;15.00;;;6.30;;
74833;SDS011;63361;52.384;20.930;2024-01-30T11:34:48;14.68;;;6.30;;
74833;SDS011;63361;52.384;20.930;2024-01-30T11:37:14;13.75;;;5.95;;
74833;SDS011;63361;52.384;20.930;2024-01-30T11:39:40;14.87;;;7.00;;
74833;SDS011;63361;52.384;20.930;2024-01-30T11:42:06;14.10;;;5.63;;
74833;SDS011;63361;52.384;20.930;2024-01-30T11:44:33;15.48;;;6.35;;
74833;SDS011;63361;52.384;20.930;2024-01-30T11:46:59;17.23;;;6.20;;
74833;SDS011;63361;52.384;20.930;2024-01-30T11:49:24;17.10;;;6.20;;
74833;SDS011;63361;52.384;20.930;2024-01-30T11:51:49;12.17;;;5.20;;
74833;SDS011;63361;52.384;20.930;2024-01-30T11:54:15;13.83;;;6.17;;
74833;SDS011;63361;52.384;20.930;2024-01-30T11:56:40;15.00;;;6.10;;
74833;SDS011;63361;52.384;20.930;2024-01-30T11:59:06;13.17;;;6.57;;
74833;SDS011;63361;52.384;20.930;2024-01-30T12:01:31;16.07;;;6.13;;
74833;SDS011;63361;52.384;20.930;2024-01-30T12:03:57;16.77;;;5.87;;
74833;SDS011;63361;52.384;20.930;2024-01-30T12:06:23;12.10;;;5.67;;
74833;SDS011;63361;52.384;20.930;2024-01-30T12:08:56;12.90;;;6.00;;
74833;SDS011;63361;52.384;20.930;2024-01-30T12:11:21;11.07;;;5.70;;
74833;SDS011;63361;52.384;20.930;2024-01-30T12:13:46;17.73;;;5.87;;
74833;SDS011;63361;52.384;20.930;2024-01-30T12:16:11;14.93;;;5.63;;
74833;SDS011;63361;52.384;20.930;2024-01-30T12:18:38;12.95;;;5.80;;
74833;SDS011;63361;52.384;20.930;2024-01-30T12:21:03;12.67;;;5.40;;
74833;SDS011;63361;52.384;20.930;2024-01-30T12:23:28;15.70;;;6.07;;
74833;SDS011;63361;52.384;20.930;2024-01-30T12:25:54;14.70;;;5.53;;
74833;SDS011;63361;52.384;20.930;2024-01-30T12:28:20;14.57;;;5.73;;
74833;SDS011;63361;52.384;20.930;2024-01-30T12:30:45;11.30;;;5.65;;
74833;SDS011;63361;52.384;20.930;2024-01-30T12:33:15;13.97;;;5.73;;
74833;SDS011;63361;52.384;20.930;2024-01-30T12:35:40;14.38;;;6.00;;
74833;SDS011;63361;52.384;20.930;2024-01-30T12:38:10;15.48;;;6.07;;
74833;SDS011;63361;52.384;20.930;2024-01-30T12:40:35;16.67;;;6.30;;
74833;SDS011;63361;52.384;20.930;2024-01-30T12:43:00;12.30;;;5.80;;
74833;SDS011;63361;52.384;20.930;2024-01-30T12:45:26;13.30;;;6.27;;
74833;SDS011;63361;52.384;20.930;2024-01-30T12:47:51;14.30;;;6.07;;
74833;SDS011;63361;52.384;20.930;2024-01-30T12:50:16;12.53;;;5.60;;
74833;SDS011;63361;52.384;20.930;2024-01-30T12:52:42;12.50;;;5.93;;
74833;SDS011;63361;52.384;20.930;2024-01-30T12:55:08;16.93;;;6.67;;
74833;SDS011;63361;52.384;20.930;2024-01-30T12:57:33;11.20;;;5.60;;
74833;SDS011;63361;52.384;20.930;2024-01-30T12:59:58;13.17;;;5.57;;
74833;SDS011;63361;52.384;20.930;2024-01-30T13:02:23;13.93;;;6.47;;
74833;SDS011;63361;52.384;20.930;2024-01-30T13:04:49;16.83;;;5.77;;
74833;SDS011;63361;52.384;20.930;2024-01-30T13:07:14;15.65;;;6.35;;
74833;SDS011;63361;52.384;20.930;2024-01-30T13:09:39;16.40;;;6.83;;
74833;SDS011;63361;52.384;20.930;2024-01-30T13:12:05;16.50;;;6.40;;
74833;SDS011;63361;52.384;20.930;2024-01-30T13:14:30;17.30;;;6.47;;
74833;SDS011;63361;52.384;20.930;2024-01-30T13:16:55;17.03;;;6.27;;
74833;SDS011;63361;52.384;20.930;2024-01-30T13:19:20;15.57;;;6.90;;
74833;SDS011;63361;52.384;20.930;2024-01-30T13:21:46;12.53;;;5.80;;
74833;SDS011;63361;52.384;20.930;2024-01-30T13:24:11;12.33;;;6.03;;
74833;SDS011;63361;52.384;20.930;2024-01-30T13:26:36;14.87;;;6.37;;
74833;SDS011;63361;52.384;20.930;2024-01-30T13:29:01;13.80;;;6.17;;
74833;SDS011;63361;52.384;20.930;2024-01-30T13:31:27;14.13;;;5.73;;
74833;SDS011;63361;52.384;20.930;2024-01-30T13:33:53;17.15;;;6.72;;
74833;SDS011;63361;52.384;20.930;2024-01-30T13:36:18;13.23;;;6.50;;
74833;SDS011;63361;52.384;20.930;2024-01-30T13:38:43;15.87;;;6.30;;
74833;SDS011;63361;52.384;20.930;2024-01-30T13:41:08;15.67;;;6.07;;
74833;SDS011;63361;52.384;20.930;2024-01-30T13:43:34;17.67;;;6.67;;
74833;SDS011;63361;52.384;20.930;2024-01-30T13:45:59;16.47;;;6.23;;
74833;SDS011;63361;52.384;20.930;2024-01-30T13:48:24;15.57;;;6.70;;
74833;SDS011;63361;52.384;20.930;2024-01-30T13:50:49;13.10;;;6.07;;
74833;SDS011;63361;52.384;20.930;2024-01-30T13:53:15;13.30;;;6.20;;
74833;SDS011;63361;52.384;20.930;2024-01-30T13:55:40;19.27;;;6.67;;
74833;SDS011;63361;52.384;20.930;2024-01-30T13:58:05;13.83;;;6.50;;
74833;SDS011;63361;52.384;20.930;2024-01-30T14:00:31;18.87;;;6.50;;
74833;SDS011;63361;52.384;20.930;2024-01-30T14:02:56;15.50;;;6.80;;
74833;SDS011;63361;52.384;20.930;2024-01-30T14:05:23;15.07;;;6.68;;
74833;SDS011;63361;52.384;20.930;2024-01-30T14:07:48;14.53;;;6.43;;